sensor_id;sensor_type;location;lat;lon;timestamp;P1;durP1;ratioP1;P2;durP2;ratioP2
26718;SDS011;14326;50.794;6.060;2024-01-15T00:36:19;51.00;;;18.58;;
26718;SDS011;14326;50.794;6.060;2024-01-15T00:38:46;50.47;;;17.05;;
26718;SDS011;14326;50.794;6.060;2024-01-15T00:41:13;49.17;;;17.45;;
26718;SDS011;14326;50.794;6.060;2024-01-15T00:43:39;56.25;;;17.77;;
26718;SDS011;14326;50.794;6.060;2024-01-15T00:46:06;48.05;;;18.00;;
26718;SDS011;14326;50.794;6.060;2024-01-15T00:48:32;48.10;;;18.05;;
26718;SDS011;14326;50.794;6.060;2024-01-15T00:50:58;49.13;;;16.65;;
26718;SDS011;14326;50.794;6.060;2024-01-15T00:53:26;48.38;;;17.17;;
26718;SDS011;14326;50.794;6.060;2024-01-15T00:55:53;48.72;;;15.50;;
26718;SDS011;14326;50.794;6.060;2024-01-15T00:58:19;49.92;;;17.27;;
26718;SDS011;14326;50.794;6.060;2024-01-15T01:00:45;50.67;;;16.02;;
26718;SDS011;14326;50.794;6.060;2024-01-15T01:03:12;52.60;;;17.52;;
26718;SDS011;14326;50.794;6.060;2024-01-15T01:05:38;51.92;;;18.30;;
26718;SDS011;14326;50.794;6.060;2024-01-15T01:08:05;48.40;;;16.90;;
26718;SDS011;14326;50.794;6.060;2024-01-15T01:10:32;48.15;;;17.60;;
26718;SDS011;14326;50.794;6.060;2024-01-15T01:12:59;46.97;;;17.58;;
26718;SDS011;14326;50.794;6.060;2024-01-15T01:15:25;47.83;;;15.93;;
26718;SDS011;14326;50.794;6.060;2024-01-15T01:17:52;47.22;;;15.95;;
26718;SDS011;14326;50.794;6.060;2024-01-15T01:20:19;49.72;;;16.95;;
26718;SDS011;14326;50.794;6.060;2024-01-15T01:22:45;52.03;;;18.80;;
26718;SDS011;14326;50.794;6.060;2024-01-15T01:25:11;51.60;;;16.80;;
26718;SDS011;14326;50.794;6.060;2024-01-15T01:27:39;54.50;;;17.60;;
26718;SDS011;14326;50.794;6.060;2024-01-15T01:30:06;47.55;;;17.52;;
26718;SDS011;14326;50.794;6.060;2024-01-15T01:32:32;52.25;;;17.42;;
26718;SDS011;14326;50.794;6.060;2024-01-15T01:34:59;52.03;;;17.67;;
26718;SDS011;14326;50.794;6.060;2024-01-15T01:37:25;51.75;;;19.13;;
26718;SDS011;14326;50.794;6.060;2024-01-15T01:39:51;51.53;;;18.58;;
26718;SDS011;14326;50.794;6.060;2024-01-15T01:42:19;49.33;;;18.45;;
26718;SDS011;14326;50.794;6.060;2024-01-15T01:44:47;53.95;;;19.30;;
26718;SDS011;14326;50.794;6.060;2024-01-15T01:47:13;48.92;;;19.27;;
26718;SDS011;14326;50.794;6.060;2024-01-15T01:49:40;55.00;;;19.65;;
26718;SDS011;14326;50.794;6.060;2024-01-15T01:52:07;56.63;;;20.95;;
26718;SDS011;14326;50.794;6.060;2024-01-15T01:54:35;56.28;;;19.92;;
26718;SDS011;14326;50.794;6.060;2024-01-15T01:57:01;55.83;;;19.95;;
26718;SDS011;14326;50.794;6.060;2024-01-15T01:59:28;55.00;;;19.60;;
26718;SDS011;14326;50.794;6.060;2024-01-15T02:01:57;51.75;;;20.85;;
26718;SDS011;14326;50.794;6.060;2024-01-15T02:04:24;52.95;;;20.88;;
26718;SDS011;14326;50.794;6.060;2024-01-15T02:06:51;59.53;;;22.45;;
26718;SDS011;14326;50.794;6.060;2024-01-15T02:09:17;56.67;;;21.65;;
26718;SDS011;14326;50.794;6.060;2024-01-15T02:11:45;57.83;;;20.95;;
26718;SDS011;14326;50.794;6.060;2024-01-15T02:14:12;59.05;;;22.40;;
26718;SDS011;14326;50.794;6.060;2024-01-15T02:16:38;61.75;;;22.23;;
26718;SDS011;14326;50.794;6.060;2024-01-15T02:19:06;60.90;;;21.80;;
26718;SDS011;14326;50.794;6.060;2024-01-15T02:21:32;60.63;;;22.80;;
26718;SDS011;14326;50.794;6.060;2024-01-15T02:24:00;58.42;;;23.02;;
26718;SDS011;14326;50.794;6.060;2024-01-15T02:26:27;59.45;;;21.08;;
26718;SDS011;14326;50.794;6.060;2024-01-15T02:28:53;56.92;;;21.75;;
26718;SDS011;14326;50.794;6.060;2024-01-15T02:31:19;52.25;;;22.08;;
26718;SDS011;14326;50.794;6.060;2024-01-15T02:33:45;51.40;;;21.00;;
26718;SDS011;14326;50.794;6.060;2024-01-15T02:36:12;54.75;;;22.20;;
26718;SDS011;14326;50.794;6.060;2024-01-15T02:38:38;56.38;;;22.00;;
26718;SDS011;14326;50.794;6.060;2024-01-15T02:41:06;55.92;;;22.05;;
26718;SDS011;14326;50.794;6.060;2024-01-15T02:43:32;59.58;;;21.00;;
26718;SDS011;14326;50.794;6.060;2024-01-15T02:45:58;56.50;;;22.20;;
26718;SDS011;14326;50.794;6.060;2024-01-15T02:48:25;51.63;;;19.33;;
26718;SDS011;14326;50.794;6.060;2024-01-15T02:50:51;58.90;;;21.63;;
26718;SDS011;14326;50.794;6.060;2024-01-15T02:53:18;50.42;;;19.20;;
26718;SDS011;14326;50.794;6.060;2024-01-15T02:55:44;51.00;;;19.92;;
26718;SDS011;14326;50.794;6.060;2024-01-15T02:58:12;46.40;;;17.05;;
26718;SDS011;14326;50.794;6.060;2024-01-15T03:00:38;49.13;;;18.80;;
26718;SDS011;14326;50.794;6.060;2024-01-15T03:03:04;49.58;;;20.80;;
26718;SDS011;14326;50.794;6.060;2024-01-15T03:05:31;51.53;;;19.35;;
26718;SDS011;14326;50.794;6.060;2024-01-15T03:07:57;48.10;;;18.67;;
26718;SDS011;14326;50.794;6.060;2024-01-15T03:10:23;48.05;;;18.35;;
26718;SDS011;14326;50.794;6.060;2024-01-15T03:12:50;45.05;;;17.20;;
26718;SDS011;14326;50.794;6.060;2024-01-15T03:15:17;46.75;;;18.25;;
26718;SDS011;14326;50.794;6.060;2024-01-15T03:17:44;50.63;;;19.20;;
26718;SDS011;14326;50.794;6.060;2024-01-15T03:20:11;46.70;;;18.08;;
26718;SDS011;14326;50.794;6.060;2024-01-15T03:22:37;47.88;;;17.55;;
26718;SDS011;14326;50.794;6.060;2024-01-15T03:25:04;51.25;;;20.70;;
26718;SDS011;14326;50.794;6.060;2024-01-15T03:27:30;42.90;;;17.35;;
26718;SDS011;14326;50.794;6.060;2024-01-15T03:29:56;49.45;;;18.80;;
26718;SDS011;14326;50.794;6.060;2024-01-15T03:32:24;46.47;;;19.17;;
26718;SDS011;14326;50.794;6.060;2024-01-15T03:34:50;49.92;;;18.77;;
26718;SDS011;14326;50.794;6.060;2024-01-15T03:37:17;46.33;;;18.58;;
26718;SDS011;14326;50.794;6.060;2024-01-15T03:39:44;42.42;;;17.98;;
26718;SDS011;14326;50.794;6.060;2024-01-15T03:42:11;45.67;;;18.35;;
26718;SDS011;14326;50.794;6.060;2024-01-15T03:44:37;47.60;;;18.75;;
26718;SDS011;14326;50.794;6.060;2024-01-15T03:47:04;49.50;;;19.30;;
26718;SDS011;14326;50.794;6.060;2024-01-15T03:49:31;43.15;;;17.75;;
26718;SDS011;14326;50.794;6.060;2024-01-15T03:51:58;45.25;;;18.85;;
26718;SDS011;14326;50.794;6.060;2024-01-15T03:54:24;47.55;;;18.52;;
26718;SDS011;14326;50.794;6.060;2024-01-15T03:56:51;52.72;;;19.48;;
26718;SDS011;14326;50.794;6.060;2024-01-15T03:59:17;43.17;;;17.13;;
26718;SDS011;14326;50.794;6.060;2024-01-15T04:01:47;46.20;;;18.75;;
26718;SDS011;14326;50.794;6.060;2024-01-15T04:04:14;47.42;;;18.23;;
26718;SDS011;14326;50.794;6.060;2024-01-15T04:06:42;44.67;;;16.95;;
26718;SDS011;14326;50.794;6.060;2024-01-15T04:09:08;50.10;;;19.45;;
26718;SDS011;14326;50.794;6.060;2024-01-15T04:11:35;44.00;;;18.73;;
26718;SDS011;14326;50.794;6.060;2024-01-15T04:14:01;49.53;;;20.08;;
26718;SDS011;14326;50.794;6.060;2024-01-15T04:16:27;45.33;;;19.90;;
26718;SDS011;14326;50.794;6.060;2024-01-15T04:18:54;45.65;;;19.27;;
26718;SDS011;14326;50.794;6.060;2024-01-15T04:21:20;44.20;;;18.95;;
26718;SDS011;14326;50.794;6.060;2024-01-15T04:23:48;46.30;;;18.88;;
26718;SDS011;14326;50.794;6.060;2024-01-15T04:26:14;47.08;;;20.08;;
26718;SDS011;14326;50.794;6.060;2024-01-15T04:28:40;47.08;;;19.38;;
26718;SDS011;14326;50.794;6.060;2024-01-15T04:31:07;48.53;;;18.38;;
26718;SDS011;14326;50.794;6.060;2024-01-15T04:33:33;42.53;;;17.88;;
26718;SDS011;14326;50.794;6.060;2024-01-15T04:36:01;47.33;;;17.52;;
26718;SDS011;14326;50.794;6.060;2024-01-15T04:38:27;42.35;;;18.20;;
26718;SDS011;14326;50.794;6.060;2024-01-15T04:40:55;46.88;;;20.00;;
26718;SDS011;14326;50.794;6.060;2024-01-15T04:43:21;47.88;;;19.42;;
26718;SDS011;14326;50.794;6.060;2024-01-15T04:45:47;49.75;;;20.70;;
26718;SDS011;14326;50.794;6.060;2024-01-15T04:48:14;47.42;;;18.77;;
26718;SDS011;14326;50.794;6.060;2024-01-15T04:50:40;43.15;;;19.02;;
26718;SDS011;14326;50.794;6.060;2024-01-15T04:53:06;44.53;;;20.00;;
26718;SDS011;14326;50.794;6.060;2024-01-15T04:55:33;44.83;;;19.77;;
26718;SDS011;14326;50.794;6.060;2024-01-15T04:58:01;48.22;;;19.17;;
26718;SDS011;14326;50.794;6.060;2024-01-15T05:00:27;46.53;;;18.38;;
26718;SDS011;14326;50.794;6.060;2024-01-15T05:02:53;51.40;;;18.77;;
26718;SDS011;14326;50.794;6.060;2024-01-15T05:05:21;41.53;;;17.48;;
26718;SDS011;14326;50.794;6.060;2024-01-15T05:07:47;42.50;;;18.05;;
26718;SDS011;14326;50.794;6.060;2024-01-15T05:10:13;44.83;;;18.98;;
26718;SDS011;14326;50.794;6.060;2024-01-15T05:12:40;41.80;;;16.95;;
26718;SDS011;14326;50.794;6.060;2024-01-15T05:15:08;46.28;;;18.40;;
26718;SDS011;14326;50.794;6.060;2024-01-15T05:17:34;41.90;;;17.48;;
26718;SDS011;14326;50.794;6.060;2024-01-15T05:20:01;36.92;;;15.70;;
26718;SDS011;14326;50.794;6.060;2024-01-15T05:22:28;44.42;;;17.63;;
26718;SDS011;14326;50.794;6.060;2024-01-15T05:24:54;41.50;;;16.58;;
26718;SDS011;14326;50.794;6.060;2024-01-15T05:27:21;37.47;;;14.55;;
26718;SDS011;14326;50.794;6.060;2024-01-15T05:29:47;37.08;;;15.45;;
26718;SDS011;14326;50.794;6.060;2024-01-15T05:32:15;38.00;;;15.88;;
26718;SDS011;14326;50.794;6.060;2024-01-15T05:34:41;38.92;;;15.07;;
26718;SDS011;14326;50.794;6.060;2024-01-15T05:37:07;36.53;;;15.25;;
26718;SDS011;14326;50.794;6.060;2024-01-15T05:39:34;34.63;;;15.15;;
26718;SDS011;14326;50.794;6.060;2024-01-15T05:42:00;38.08;;;15.15;;
26718;SDS011;14326;50.794;6.060;2024-01-15T05:44:26;34.58;;;14.68;;
26718;SDS011;14326;50.794;6.060;2024-01-15T05:46:53;36.10;;;15.20;;
26718;SDS011;14326;50.794;6.060;2024-01-15T05:49:21;36.95;;;15.55;;
26718;SDS011;14326;50.794;6.060;2024-01-15T05:51:47;39.08;;;15.55;;
26718;SDS011;14326;50.794;6.060;2024-01-15T05:54:13;45.45;;;15.60;;
26718;SDS011;14326;50.794;6.060;2024-01-15T05:56:40;40.22;;;15.43;;
26718;SDS011;14326;50.794;6.060;2024-01-15T05:59:06;43.95;;;16.65;;
26718;SDS011;14326;50.794;6.060;2024-01-15T06:01:32;41.08;;;16.13;;
26718;SDS011;14326;50.794;6.060;2024-01-15T06:03:59;40.45;;;16.13;;
26718;SDS011;14326;50.794;6.060;2024-01-15T06:06:26;41.08;;;17.35;;
26718;SDS011;14326;50.794;6.060;2024-01-15T06:08:53;42.63;;;16.88;;
26718;SDS011;14326;50.794;6.060;2024-01-15T06:11:19;38.50;;;15.15;;
26718;SDS011;14326;50.794;6.060;2024-01-15T06:13:46;41.58;;;16.92;;
26718;SDS011;14326;50.794;6.060;2024-01-15T06:16:13;44.90;;;17.50;;
26718;SDS011;14326;50.794;6.060;2024-01-15T06:18:40;42.08;;;16.83;;
26718;SDS011;14326;50.794;6.060;2024-01-15T06:21:06;51.70;;;18.92;;
26718;SDS011;14326;50.794;6.060;2024-01-15T06:23:36;42.03;;;16.83;;
26718;SDS011;14326;50.794;6.060;2024-01-15T06:26:03;44.72;;;18.75;;
26718;SDS011;14326;50.794;6.060;2024-01-15T06:28:29;48.15;;;19.70;;
26718;SDS011;14326;50.794;6.060;2024-01-15T06:30:56;41.17;;;17.88;;
26718;SDS011;14326;50.794;6.060;2024-01-15T06:33:23;50.10;;;21.02;;
26718;SDS011;14326;50.794;6.060;2024-01-15T06:35:50;49.35;;;23.02;;
26718;SDS011;14326;50.794;6.060;2024-01-15T06:38:16;54.05;;;22.10;;
26718;SDS011;14326;50.794;6.060;2024-01-15T06:40:44;53.22;;;22.33;;
26718;SDS011;14326;50.794;6.060;2024-01-15T06:43:10;47.42;;;21.13;;
26718;SDS011;14326;50.794;6.060;2024-01-15T06:45:37;51.40;;;21.30;;
26718;SDS011;14326;50.794;6.060;2024-01-15T06:48:03;53.67;;;20.25;;
26718;SDS011;14326;50.794;6.060;2024-01-15T06:50:30;47.10;;;21.25;;
26718;SDS011;14326;50.794;6.060;2024-01-15T06:52:56;49.35;;;22.35;;
26718;SDS011;14326;50.794;6.060;2024-01-15T06:55:23;48.15;;;21.27;;
26718;SDS011;14326;50.794;6.060;2024-01-15T06:57:51;47.83;;;20.80;;
26718;SDS011;14326;50.794;6.060;2024-01-15T07:00:18;48.72;;;22.33;;
26718;SDS011;14326;50.794;6.060;2024-01-15T07:02:45;52.20;;;21.20;;
26718;SDS011;14326;50.794;6.060;2024-01-15T07:05:11;47.65;;;21.60;;
26718;SDS011;14326;50.794;6.060;2024-01-15T07:07:38;46.97;;;20.42;;
26718;SDS011;14326;50.794;6.060;2024-01-15T07:10:05;50.28;;;20.98;;
26718;SDS011;14326;50.794;6.060;2024-01-15T07:12:31;50.92;;;21.08;;
26718;SDS011;14326;50.794;6.060;2024-01-15T07:15:00;48.85;;;20.00;;
26718;SDS011;14326;50.794;6.060;2024-01-15T07:17:27;46.55;;;20.17;;
26718;SDS011;14326;50.794;6.060;2024-01-15T07:19:53;45.88;;;19.05;;
26718;SDS011;14326;50.794;6.060;2024-01-15T07:22:19;42.05;;;18.52;;
26718;SDS011;14326;50.794;6.060;2024-01-15T07:24:46;43.30;;;17.13;;
26718;SDS011;14326;50.794;6.060;2024-01-15T07:27:12;39.00;;;17.80;;
26718;SDS011;14326;50.794;6.060;2024-01-15T07:29:39;41.60;;;17.30;;
26718;SDS011;14326;50.794;6.060;2024-01-15T07:32:06;42.78;;;17.42;;
26718;SDS011;14326;50.794;6.060;2024-01-15T07:34:33;38.35;;;15.40;;
26718;SDS011;14326;50.794;6.060;2024-01-15T07:37:00;41.58;;;16.60;;
26718;SDS011;14326;50.794;6.060;2024-01-15T07:39:26;34.22;;;14.82;;
26718;SDS011;14326;50.794;6.060;2024-01-15T07:41:53;36.55;;;14.55;;
26718;SDS011;14326;50.794;6.060;2024-01-15T07:44:20;35.58;;;14.55;;
26718;SDS011;14326;50.794;6.060;2024-01-15T07:46:46;40.75;;;14.23;;
26718;SDS011;14326;50.794;6.060;2024-01-15T07:49:14;33.80;;;13.68;;
26718;SDS011;14326;50.794;6.060;2024-01-15T07:51:41;33.72;;;12.57;;
26718;SDS011;14326;50.794;6.060;2024-01-15T07:54:08;28.70;;;12.02;;
26718;SDS011;14326;50.794;6.060;2024-01-15T07:59:18;29.88;;;11.02;;
26718;SDS011;14326;50.794;6.060;2024-01-15T08:01:44;30.65;;;11.32;;
26718;SDS011;14326;50.794;6.060;2024-01-15T08:04:10;29.08;;;9.95;;
26718;SDS011;14326;50.794;6.060;2024-01-15T08:06:39;29.20;;;11.40;;
26718;SDS011;14326;50.794;6.060;2024-01-15T08:09:06;29.13;;;10.50;;
26718;SDS011;14326;50.794;6.060;2024-01-15T08:11:33;23.95;;;9.75;;
26718;SDS011;14326;50.794;6.060;2024-01-15T08:14:00;26.98;;;10.23;;
26718;SDS011;14326;50.794;6.060;2024-01-15T08:16:26;27.75;;;10.07;;
26718;SDS011;14326;50.794;6.060;2024-01-15T08:18:53;24.60;;;10.25;;
26718;SDS011;14326;50.794;6.060;2024-01-15T08:21:19;27.90;;;9.48;;
26718;SDS011;14326;50.794;6.060;2024-01-15T08:23:47;26.90;;;9.65;;
26718;SDS011;14326;50.794;6.060;2024-01-15T08:26:13;27.13;;;10.00;;
26718;SDS011;14326;50.794;6.060;2024-01-15T08:28:40;26.17;;;9.90;;
26718;SDS011;14326;50.794;6.060;2024-01-15T08:31:06;25.83;;;9.80;;
26718;SDS011;14326;50.794;6.060;2024-01-15T08:33:33;25.38;;;9.15;;
26718;SDS011;14326;50.794;6.060;2024-01-15T08:35:59;27.35;;;10.27;;
26718;SDS011;14326;50.794;6.060;2024-01-15T08:38:25;27.55;;;9.80;;
26718;SDS011;14326;50.794;6.060;2024-01-15T08:40:53;23.00;;;9.40;;
26718;SDS011;14326;50.794;6.060;2024-01-15T08:43:21;25.48;;;8.20;;
26718;SDS011;14326;50.794;6.060;2024-01-15T08:45:48;31.75;;;12.15;;
26718;SDS011;14326;50.794;6.060;2024-01-15T08:48:14;27.23;;;10.02;;
26718;SDS011;14326;50.794;6.060;2024-01-15T08:50:41;28.33;;;9.57;;
26718;SDS011;14326;50.794;6.060;2024-01-15T08:53:07;25.63;;;10.35;;
26718;SDS011;14326;50.794;6.060;2024-01-15T08:55:33;25.05;;;9.15;;
26718;SDS011;14326;50.794;6.060;2024-01-15T08:58:01;26.45;;;9.98;;
26718;SDS011;14326;50.794;6.060;2024-01-15T09:00:28;24.25;;;10.52;;
26718;SDS011;14326;50.794;6.060;2024-01-15T09:02:55;26.65;;;9.68;;
26718;SDS011;14326;50.794;6.060;2024-01-15T09:05:21;25.65;;;8.73;;
26718;SDS011;14326;50.794;6.060;2024-01-15T09:07:48;30.38;;;9.30;;
26718;SDS011;14326;50.794;6.060;2024-01-15T09:10:17;22.85;;;8.73;;
26718;SDS011;14326;50.794;6.060;2024-01-15T09:12:43;24.38;;;8.82;;
26718;SDS011;14326;50.794;6.060;2024-01-15T09:15:11;23.73;;;8.07;;
26718;SDS011;14326;50.794;6.060;2024-01-15T09:17:37;25.02;;;8.63;;
26718;SDS011;14326;50.794;6.060;2024-01-15T09:20:04;23.92;;;8.75;;
26718;SDS011;14326;50.794;6.060;2024-01-15T09:22:31;19.55;;;7.85;;
26718;SDS011;14326;50.794;6.060;2024-01-15T09:24:58;24.42;;;8.40;;
26718;SDS011;14326;50.794;6.060;2024-01-15T09:27:24;31.88;;;8.75;;
26718;SDS011;14326;50.794;6.060;2024-01-15T09:29:51;24.05;;;8.98;;
26718;SDS011;14326;50.794;6.060;2024-01-15T09:32:19;21.92;;;8.48;;
26718;SDS011;14326;50.794;6.060;2024-01-15T09:34:46;26.55;;;9.13;;
26718;SDS011;14326;50.794;6.060;2024-01-15T09:37:13;26.73;;;8.00;;
26718;SDS011;14326;50.794;6.060;2024-01-15T09:39:39;23.20;;;8.50;;
26718;SDS011;14326;50.794;6.060;2024-01-15T09:42:06;21.67;;;8.88;;
26718;SDS011;14326;50.794;6.060;2024-01-15T09:44:33;22.65;;;8.35;;
26718;SDS011;14326;50.794;6.060;2024-01-15T09:46:59;24.48;;;9.05;;
26718;SDS011;14326;50.794;6.060;2024-01-15T09:49:27;24.77;;;8.82;;
26718;SDS011;14326;50.794;6.060;2024-01-15T09:51:55;21.55;;;8.05;;
26718;SDS011;14326;50.794;6.060;2024-01-15T09:54:22;23.38;;;9.10;;
26718;SDS011;14326;50.794;6.060;2024-01-15T09:56:49;26.90;;;9.18;;
26718;SDS011;14326;50.794;6.060;2024-01-15T09:59:15;23.05;;;8.75;;
26718;SDS011;14326;50.794;6.060;2024-01-15T10:01:42;26.63;;;9.52;;
26718;SDS011;14326;50.794;6.060;2024-01-15T10:04:09;21.30;;;8.20;;
26718;SDS011;14326;50.794;6.060;2024-01-15T10:06:37;24.50;;;8.90;;
26718;SDS011;14326;50.794;6.060;2024-01-15T10:09:04;23.63;;;8.00;;
26718;SDS011;14326;50.794;6.060;2024-01-15T10:11:32;23.75;;;8.85;;
26718;SDS011;14326;50.794;6.060;2024-01-15T10:13:59;20.83;;;8.32;;
26718;SDS011;14326;50.794;6.060;2024-01-15T10:16:25;22.58;;;9.25;;
26718;SDS011;14326;50.794;6.060;2024-01-15T10:18:52;24.38;;;8.30;;
26718;SDS011;14326;50.794;6.060;2024-01-15T10:21:18;27.58;;;9.57;;
26718;SDS011;14326;50.794;6.060;2024-01-15T10:23:46;30.27;;;10.15;;
26718;SDS011;14326;50.794;6.060;2024-01-15T10:26:12;26.38;;;9.48;;
26718;SDS011;14326;50.794;6.060;2024-01-15T10:28:39;25.60;;;9.82;;
26718;SDS011;14326;50.794;6.060;2024-01-15T10:31:06;24.65;;;9.73;;
26718;SDS011;14326;50.794;6.060;2024-01-15T10:33:32;20.73;;;8.48;;
26718;SDS011;14326;50.794;6.060;2024-01-15T10:35:59;25.00;;;9.00;;
26718;SDS011;14326;50.794;6.060;2024-01-15T10:38:26;29.70;;;9.57;;
26718;SDS011;14326;50.794;6.060;2024-01-15T10:40:54;24.77;;;7.82;;
26718;SDS011;14326;50.794;6.060;2024-01-15T10:43:21;23.33;;;8.25;;
26718;SDS011;14326;50.794;6.060;2024-01-15T10:45:48;24.70;;;8.57;;
26718;SDS011;14326;50.794;6.060;2024-01-15T10:48:15;23.52;;;9.05;;
26718;SDS011;14326;50.794;6.060;2024-01-15T10:50:42;22.23;;;7.57;;
26718;SDS011;14326;50.794;6.060;2024-01-15T10:53:09;22.13;;;7.60;;
26718;SDS011;14326;50.794;6.060;2024-01-15T10:55:37;24.52;;;7.68;;
26718;SDS011;14326;50.794;6.060;2024-01-15T10:58:05;25.15;;;7.88;;
26718;SDS011;14326;50.794;6.060;2024-01-15T11:00:32;25.25;;;7.57;;
26718;SDS011;14326;50.794;6.060;2024-01-15T11:03:00;23.38;;;6.25;;
26718;SDS011;14326;50.794;6.060;2024-01-15T11:05:26;23.45;;;6.13;;
26718;SDS011;14326;50.794;6.060;2024-01-15T11:07:54;18.05;;;6.00;;
26718;SDS011;14326;50.794;6.060;2024-01-15T11:10:40;20.80;;;6.07;;
26718;SDS011;14326;50.794;6.060;2024-01-15T11:13:13;18.95;;;5.35;;
26718;SDS011;14326;50.794;6.060;2024-01-15T11:15:55;19.38;;;5.35;;
26718;SDS011;14326;50.794;6.060;2024-01-15T11:18:22;19.65;;;5.57;;
26718;SDS011;14326;50.794;6.060;2024-01-15T11:23:42;17.10;;;4.72;;
26718;SDS011;14326;50.794;6.060;2024-01-15T11:28:52;16.40;;;4.80;;
26718;SDS011;14326;50.794;6.060;2024-01-15T11:31:18;17.48;;;4.80;;
26718;SDS011;14326;50.794;6.060;2024-01-15T11:33:47;17.08;;;4.63;;
26718;SDS011;14326;50.794;6.060;2024-01-15T11:36:14;17.52;;;4.75;;
26718;SDS011;14326;50.794;6.060;2024-01-15T11:38:40;18.38;;;4.60;;
26718;SDS011;14326;50.794;6.060;2024-01-15T11:41:13;14.02;;;3.92;;
26718;SDS011;14326;50.794;6.060;2024-01-15T11:43:40;21.23;;;4.95;;
26718;SDS011;14326;50.794;6.060;2024-01-15T11:46:08;20.50;;;4.40;;
26718;SDS011;14326;50.794;6.060;2024-01-15T11:48:41;14.82;;;4.20;;
26718;SDS011;14326;50.794;6.060;2024-01-15T11:51:08;18.30;;;3.88;;
26718;SDS011;14326;50.794;6.060;2024-01-15T11:53:39;18.50;;;4.07;;
26718;SDS011;14326;50.794;6.060;2024-01-15T11:56:10;17.90;;;3.85;;
26718;SDS011;14326;50.794;6.060;2024-01-15T11:58:38;16.65;;;4.35;;
26718;SDS011;14326;50.794;6.060;2024-01-15T12:01:04;18.58;;;4.50;;
26718;SDS011;14326;50.794;6.060;2024-01-15T12:03:32;14.50;;;3.90;;
26718;SDS011;14326;50.794;6.060;2024-01-15T12:05:58;17.38;;;4.05;;
26718;SDS011;14326;50.794;6.060;2024-01-15T12:08:25;19.98;;;4.35;;
26718;SDS011;14326;50.794;6.060;2024-01-15T12:10:52;14.88;;;3.38;;
26718;SDS011;14326;50.794;6.060;2024-01-15T12:13:19;12.38;;;3.28;;
26718;SDS011;14326;50.794;6.060;2024-01-15T12:15:47;22.35;;;4.22;;
26718;SDS011;14326;50.794;6.060;2024-01-15T12:18:15;16.35;;;3.70;;
26718;SDS011;14326;50.794;6.060;2024-01-15T12:20:43;17.75;;;3.75;;
26718;SDS011;14326;50.794;6.060;2024-01-15T12:23:11;19.20;;;3.90;;
26718;SDS011;14326;50.794;6.060;2024-01-15T12:25:38;18.90;;;4.15;;
26718;SDS011;14326;50.794;6.060;2024-01-15T12:28:05;16.77;;;3.67;;
26718;SDS011;14326;50.794;6.060;2024-01-15T12:30:33;15.93;;;3.65;;
26718;SDS011;14326;50.794;6.060;2024-01-15T12:33:01;15.82;;;3.50;;
26718;SDS011;14326;50.794;6.060;2024-01-15T12:35:28;18.95;;;3.50;;
26718;SDS011;14326;50.794;6.060;2024-01-15T12:37:56;16.75;;;3.67;;
26718;SDS011;14326;50.794;6.060;2024-01-15T12:40:23;15.95;;;3.45;;
26718;SDS011;14326;50.794;6.060;2024-01-15T12:42:49;15.10;;;3.63;;
26718;SDS011;14326;50.794;6.060;2024-01-15T12:45:16;12.65;;;3.88;;
26718;SDS011;14326;50.794;6.060;2024-01-15T12:47:42;14.55;;;3.55;;
26718;SDS011;14326;50.794;6.060;2024-01-15T12:50:08;18.85;;;3.38;;
26718;SDS011;14326;50.794;6.060;2024-01-15T12:52:35;21.27;;;3.60;;
26718;SDS011;14326;50.794;6.060;2024-01-15T12:55:04;21.20;;;3.63;;
26718;SDS011;14326;50.794;6.060;2024-01-15T12:57:30;21.27;;;4.22;;
26718;SDS011;14326;50.794;6.060;2024-01-15T12:59:57;19.35;;;3.50;;
26718;SDS011;14326;50.794;6.060;2024-01-15T13:02:23;13.48;;;3.63;;
26718;SDS011;14326;50.794;6.060;2024-01-15T13:04:50;10.18;;;3.50;;
26718;SDS011;14326;50.794;6.060;2024-01-15T13:07:16;9.18;;;3.33;;
26718;SDS011;14326;50.794;6.060;2024-01-15T13:09:43;12.95;;;3.97;;
26718;SDS011;14326;50.794;6.060;2024-01-15T13:12:10;12.13;;;3.50;;
26718;SDS011;14326;50.794;6.060;2024-01-15T13:14:37;11.27;;;3.72;;
26718;SDS011;14326;50.794;6.060;2024-01-15T13:17:04;14.82;;;3.70;;
26718;SDS011;14326;50.794;6.060;2024-01-15T13:19:31;13.07;;;4.07;;
26718;SDS011;14326;50.794;6.060;2024-01-15T13:21:58;14.00;;;3.90;;
26718;SDS011;14326;50.794;6.060;2024-01-15T13:24:25;12.07;;;3.55;;
26718;SDS011;14326;50.794;6.060;2024-01-15T13:26:51;9.82;;;3.58;;
26718;SDS011;14326;50.794;6.060;2024-01-15T13:29:19;8.38;;;3.25;;
26718;SDS011;14326;50.794;6.060;2024-01-15T13:31:45;11.45;;;3.42;;
26718;SDS011;14326;50.794;6.060;2024-01-15T13:34:12;12.68;;;3.58;;
26718;SDS011;14326;50.794;6.060;2024-01-15T13:36:39;10.50;;;3.58;;
26718;SDS011;14326;50.794;6.060;2024-01-15T13:39:06;10.98;;;3.53;;
26718;SDS011;14326;50.794;6.060;2024-01-15T13:41:34;7.65;;;3.05;;
26718;SDS011;14326;50.794;6.060;2024-01-15T13:44:00;11.52;;;3.20;;
26718;SDS011;14326;50.794;6.060;2024-01-15T13:46:28;13.25;;;3.65;;
26718;SDS011;14326;50.794;6.060;2024-01-15T13:48:55;11.45;;;3.53;;
26718;SDS011;14326;50.794;6.060;2024-01-15T13:51:22;9.07;;;3.10;;
26718;SDS011;14326;50.794;6.060;2024-01-15T13:53:48;9.07;;;2.90;;
26718;SDS011;14326;50.794;6.060;2024-01-15T13:56:14;10.88;;;3.28;;
26718;SDS011;14326;50.794;6.060;2024-01-15T13:58:41;8.27;;;2.90;;
26718;SDS011;14326;50.794;6.060;2024-01-15T14:01:07;10.23;;;3.38;;
26718;SDS011;14326;50.794;6.060;2024-01-15T14:03:35;8.90;;;3.53;;
26718;SDS011;14326;50.794;6.060;2024-01-15T14:06:02;14.10;;;4.10;;
26718;SDS011;14326;50.794;6.060;2024-01-15T14:08:31;9.43;;;2.90;;
26718;SDS011;14326;50.794;6.060;2024-01-15T14:10:57;10.30;;;3.85;;
26718;SDS011;14326;50.794;6.060;2024-01-15T14:13:24;11.88;;;3.88;;
26718;SDS011;14326;50.794;6.060;2024-01-15T14:15:50;13.40;;;3.53;;
26718;SDS011;14326;50.794;6.060;2024-01-15T14:18:16;12.82;;;3.28;;
26718;SDS011;14326;50.794;6.060;2024-01-15T14:20:44;10.38;;;3.03;;
26718;SDS011;14326;50.794;6.060;2024-01-15T14:23:11;11.07;;;2.95;;
26718;SDS011;14326;50.794;6.060;2024-01-15T14:25:38;7.55;;;2.67;;
26718;SDS011;14326;50.794;6.060;2024-01-15T14:28:05;8.77;;;2.97;;
26718;SDS011;14326;50.794;6.060;2024-01-15T14:30:31;11.68;;;3.33;;
26718;SDS011;14326;50.794;6.060;2024-01-15T14:32:58;14.18;;;3.38;;
26718;SDS011;14326;50.794;6.060;2024-01-15T14:35:24;10.13;;;3.15;;
26718;SDS011;14326;50.794;6.060;2024-01-15T14:37:52;11.10;;;3.15;;
26718;SDS011;14326;50.794;6.060;2024-01-15T14:40:18;10.35;;;2.90;;
26718;SDS011;14326;50.794;6.060;2024-01-15T14:42:44;8.18;;;2.90;;
26718;SDS011;14326;50.794;6.060;2024-01-15T14:45:11;9.98;;;2.60;;
26718;SDS011;14326;50.794;6.060;2024-01-15T14:47:37;6.97;;;2.50;;
26718;SDS011;14326;50.794;6.060;2024-01-15T14:50:05;10.82;;;2.80;;
26718;SDS011;14326;50.794;6.060;2024-01-15T14:52:31;8.35;;;2.63;;
26718;SDS011;14326;50.794;6.060;2024-01-15T14:55:00;10.68;;;3.00;;
26718;SDS011;14326;50.794;6.060;2024-01-15T14:57:26;12.13;;;3.22;;
26718;SDS011;14326;50.794;6.060;2024-01-15T14:59:53;10.27;;;3.47;;
26718;SDS011;14326;50.794;6.060;2024-01-15T15:02:19;12.23;;;3.40;;
26718;SDS011;14326;50.794;6.060;2024-01-15T15:04:45;9.57;;;2.90;;
26718;SDS011;14326;50.794;6.060;2024-01-15T15:07:12;15.13;;;4.18;;
26718;SDS011;14326;50.794;6.060;2024-01-15T15:09:38;12.20;;;3.42;;